createdAt,value
2022-10-19T00:00:05.275Z,101887.00
2022-10-19T00:01:13.325Z,101892.53
2022-10-19T00:02:15.075Z,101892.25
2022-10-19T00:03:20.754Z,101892.38
2022-10-19T00:04:24.954Z,101898.47
2022-10-19T00:05:27.835Z,101894.09
2022-10-19T00:06:32.440Z,101889.69
2022-10-19T00:07:34.708Z,101895.94
2022-10-19T00:08:36.635Z,101895.06
2022-10-19T00:09:38.347Z,101893.38
2022-10-19T00:10:41.274Z,101896.22
2022-10-19T00:11:46.166Z,101896.22
2022-10-19T00:13:51.595Z,101891.81
2022-10-19T00:15:55.232Z,101902.44
2022-10-19T00:16:58.296Z,101887.72
2022-10-19T00:17:59.977Z,101907.81
2022-10-19T00:19:04.795Z,101866.84
2022-10-19T00:20:06.983Z,101901.59
2022-10-19T00:21:10.734Z,101906.97
2022-10-19T00:22:13.995Z,101905.97
2022-10-19T00:23:16.086Z,101914.06
2022-10-19T00:24:18.689Z,101910.66
2022-10-19T00:25:20.678Z,101907.97
2022-10-19T00:26:22.650Z,101910.66
2022-10-19T00:27:24.691Z,101917.00
2022-10-19T00:28:27.288Z,101914.31
2022-10-19T00:29:29.040Z,101914.31
2022-10-19T00:30:30.798Z,101911.75
2022-10-19T00:31:32.750Z,101912.63
2022-10-19T00:32:34.713Z,101918.00
2022-10-19T00:33:36.952Z,101915.31
2022-10-19T00:34:38.699Z,101915.31
2022-10-19T00:35:40.982Z,101910.94
2022-10-19T00:36:42.698Z,101910.94
2022-10-19T00:37:44.464Z,101914.44
2022-10-19T00:38:46.468Z,101917.28
2022-10-19T00:39:48.300Z,101923.38
2022-10-19T00:40:50.201Z,101916.31
2022-10-19T00:41:51.971Z,101913.63
2022-10-19T00:42:57.058Z,101918.28
2022-10-19T00:44:11.822Z,101921.69
2022-10-19T00:45:16.410Z,101924.09
2022-10-19T00:46:18.080Z,101919.72
2022-10-19T00:47:23.781Z,101917.13
2022-10-19T00:48:29.911Z,101919.00
2022-10-19T00:49:36.108Z,101918.00
2022-10-19T00:50:38.959Z,101932.28
2022-10-19T00:51:45.203Z,101919.00
2022-10-19T00:52:47.071Z,101923.38
2022-10-19T00:53:48.955Z,101911.31
2022-10-19T00:54:53.591Z,101928.06
2022-10-19T00:55:57.319Z,101928.06
2022-10-19T00:56:59.943Z,101937.94
2022-10-19T00:58:03.839Z,101944.19
2022-10-19T00:59:06.594Z,101930.75
2022-10-19T01:00:09.273Z,101933.44
2022-10-19T01:01:16.089Z,101923.91
2022-10-19T01:02:17.851Z,101929.88
2022-10-19T01:03:20.867Z,101932.44
2022-10-19T01:04:25.072Z,101936.13
2022-10-19T01:05:28.218Z,101936.13
2022-10-19T01:06:30.198Z,101940.63
2022-10-19T01:07:33.154Z,101918.22
2022-10-19T01:08:35.190Z,101945.16
2022-10-19T01:09:36.971Z,101930.03
2022-10-19T01:11:07.979Z,101929.19
2022-10-19T01:12:09.672Z,101939.25
2022-10-19T01:13:51.871Z,101933.59
2022-10-19T01:15:02.535Z,101925.25
2022-10-19T01:16:18.130Z,101927.34
2022-10-19T01:17:44.571Z,101929.03
2022-10-19T01:18:52.126Z,101928.22
2022-10-19T01:20:18.459Z,101931.59
2022-10-19T01:21:31.104Z,101931.72
2022-10-19T01:22:44.920Z,101935.56
2022-10-19T01:24:14.975Z,101938.97
2022-10-19T01:25:48.758Z,101931.88
2022-10-19T01:26:53.561Z,101928.22
2022-10-19T01:28:23.378Z,101931.03
2022-10-19T01:29:34.196Z,101929.91
2022-10-19T01:30:45.566Z,101931.28
2022-10-19T01:31:57.603Z,101937.81
2022-10-19T01:33:31.695Z,101941.66
2022-10-19T01:34:40.429Z,101931.03
2022-10-19T01:36:13.967Z,101941.78
2022-10-19T01:37:32.685Z,101939.25
2022-10-19T01:38:48.879Z,101939.25
2022-10-19T01:39:57.351Z,101941.34
2022-10-19T01:41:11.471Z,101939.63
2022-10-19T01:42:23.263Z,101936.25
2022-10-19T01:43:30.926Z,101945.16
2022-10-19T01:44:32.668Z,101946.16
2022-10-19T01:45:41.291Z,101942.84
2022-10-19T01:46:52.619Z,101946.38
2022-10-19T01:48:15.603Z,101919.03
2022-10-19T01:49:47.282Z,101944.63
2022-10-19T01:51:00.783Z,101938.53
2022-10-19T01:52:08.665Z,101947.69
2022-10-19T01:53:12.678Z,101948.84
2022-10-19T01:54:17.698Z,101941.84
2022-10-19T01:55:21.106Z,101937.47
2022-10-19T01:56:27.939Z,101930.94
2022-10-19T01:57:35.006Z,101933.47
2022-10-19T01:58:39.638Z,101946.66
2022-10-19T01:59:42.736Z,101942.25
2022-10-19T02:00:48.675Z,101946.78
2022-10-19T02:01:52.698Z,101952.03
2022-10-19T02:02:55.451Z,101947.63
2022-10-19T02:03:58.848Z,101946.78
2022-10-19T02:05:02.951Z,101948.78
2022-10-19T02:06:07.370Z,101949.59
2022-10-19T02:07:11.239Z,101953.28
2022-10-19T02:08:20.398Z,101946.09
2022-10-19T02:09:22.779Z,101956.56
2022-10-19T02:10:25.785Z,101957.66
2022-10-19T02:11:28.690Z,101954.00
2022-10-19T02:12:33.569Z,101948.78
2022-10-19T02:13:37.002Z,101956.69
2022-10-19T02:14:49.018Z,101945.09
2022-10-19T02:15:55.013Z,101950.47
2022-10-19T02:17:01.738Z,101944.22
2022-10-19T02:18:04.747Z,101950.31
2022-10-19T02:19:08.922Z,101913.03
2022-10-19T02:20:10.811Z,101938.84
2022-10-19T02:21:13.042Z,101941.69
2022-10-19T02:22:14.819Z,101942.53
2022-10-19T02:23:21.500Z,101942.69
2022-10-19T02:24:23.255Z,101947.91
2022-10-19T02:25:25.497Z,101930.63
2022-10-19T02:26:27.614Z,101942.53
2022-10-19T02:27:29.631Z,101925.53
2022-10-19T02:28:31.974Z,101951.59
2022-10-19T02:29:35.674Z,101943.66
2022-10-19T02:30:37.810Z,101952.44
2022-10-19T02:31:39.937Z,101947.91
2022-10-19T02:32:43.580Z,101946.38
2022-10-19T02:33:45.422Z,101944.50
2022-10-19T02:34:47.278Z,101951.59
2022-10-19T02:35:49.190Z,101947.06
2022-10-19T02:36:51.066Z,101938.56
2022-10-19T02:37:52.902Z,101948.91
2022-10-19T02:38:54.691Z,101944.50
2022-10-19T02:39:56.407Z,101945.38
2022-10-19T02:41:07.099Z,101942.81
2022-10-19T02:42:18.761Z,101942.53
2022-10-19T02:43:23.222Z,101943.25
2022-10-19T02:44:34.005Z,101954.97
2022-10-19T02:45:41.105Z,101941.97
2022-10-19T02:46:46.382Z,101946.91
2022-10-19T02:47:52.302Z,101948.78
2022-10-19T02:48:55.221Z,101961.34
2022-10-19T02:49:57.125Z,101956.84
2022-10-19T02:50:58.880Z,101957.81
2022-10-19T02:52:02.990Z,101957.13
2022-10-19T02:53:04.722Z,101953.44
2022-10-19T02:54:08.323Z,101958.09
2022-10-19T02:55:10.108Z,101949.88
2022-10-19T02:56:11.817Z,101953.56
2022-10-19T02:57:19.549Z,101950.16
2022-10-19T02:58:21.287Z,101938.84
2022-10-19T02:59:23.795Z,101952.84
2022-10-19T03:00:25.603Z,101955.25
2022-10-19T03:01:27.296Z,101953.56
2022-10-19T03:02:28.970Z,101945.06
2022-10-19T03:03:30.698Z,101953.56
2022-10-19T03:04:32.530Z,101961.63
2022-10-19T03:05:34.251Z,101959.09
2022-10-19T03:06:36.021Z,101965.28
2022-10-19T03:07:37.945Z,101962.75
2022-10-19T03:08:39.722Z,101966.28
2022-10-19T03:09:42.643Z,101956.06
2022-10-19T03:10:44.415Z,101967.97
2022-10-19T03:11:46.161Z,101965.44
2022-10-19T03:12:47.938Z,101968.97
2022-10-19T03:13:49.606Z,101966.28
2022-10-19T03:14:51.416Z,101963.59
2022-10-19T03:15:53.150Z,101971.66
2022-10-19T03:16:54.966Z,101967.28
2022-10-19T03:17:57.206Z,101971.66
2022-10-19T03:18:58.999Z,101975.22
2022-10-19T03:20:00.776Z,101967.97
2022-10-19T03:21:20.419Z,101963.19
2022-10-19T03:22:22.202Z,101968.56
2022-10-19T03:23:24.030Z,101972.09
2022-10-19T03:24:25.766Z,101976.75
2022-10-19T03:25:27.476Z,101975.06
2022-10-19T03:26:29.255Z,101976.03
2022-10-19T03:27:31.043Z,101973.34
2022-10-19T03:28:33.017Z,101934.81
2022-10-19T03:29:34.807Z,101968.84
2022-10-19T03:30:36.482Z,101962.75
2022-10-19T03:31:38.225Z,101974.22
2022-10-19T03:32:40.033Z,101952.41
2022-10-19T03:33:41.820Z,101968.97
2022-10-19T03:34:43.670Z,101969.84
2022-10-19T03:35:45.396Z,101930.56
2022-10-19T03:36:47.153Z,101971.66
2022-10-19T03:37:48.874Z,101973.34
2022-10-19T03:38:52.030Z,101969.84
2022-10-19T03:39:53.701Z,101976.03
2022-10-19T03:40:55.466Z,101980.59
2022-10-19T03:41:57.197Z,101968.13
2022-10-19T03:42:58.857Z,101971.66
2022-10-19T03:45:07.676Z,101979.59
2022-10-19T03:46:10.038Z,101958.88
2022-10-19T03:47:11.793Z,101935.94
2022-10-19T03:48:13.535Z,101978.75
2022-10-19T03:49:15.287Z,101971.66
2022-10-19T03:50:17.362Z,101971.09
2022-10-19T03:51:22.164Z,101980.72
2022-10-19T03:52:23.844Z,101971.09
2022-10-19T03:53:25.622Z,101978.03
2022-10-19T03:54:27.687Z,101976.19
2022-10-19T03:55:30.443Z,101979.56
2022-10-19T03:56:34.021Z,101981.56
2022-10-19T03:57:36.046Z,101985.09
2022-10-19T03:58:39.138Z,101974.78
2022-10-19T03:59:40.821Z,101983.28
2022-10-19T04:00:42.576Z,101981.56
2022-10-19T04:01:46.129Z,101987.78
2022-10-19T04:02:47.791Z,101981.97
2022-10-19T04:04:00.726Z,101982.69
2022-10-19T04:05:02.418Z,101976.75
2022-10-19T04:06:17.066Z,101998.25
2022-10-19T04:07:21.406Z,101995.31
2022-10-19T04:08:23.162Z,101991.06
2022-10-19T04:09:24.835Z,101979.28
2022-10-19T04:10:26.558Z,101995.84
2022-10-19T04:11:30.531Z,102002.94
2022-10-19T04:12:33.110Z,101965.06
2022-10-19T04:13:35.671Z,102000.41
2022-10-19T04:14:52.401Z,102000.50
2022-10-19T04:15:58.471Z,101995.56
2022-10-19T04:17:03.303Z,101994.88
2022-10-19T04:18:05.073Z,102009.88
2022-10-19T04:19:06.835Z,102009.28
2022-10-19T04:20:09.221Z,102005.63
2022-10-19T04:21:23.988Z,102011.00
2022-10-19T04:22:25.660Z,101995.41
2022-10-19T04:23:28.734Z,102010.00
2022-10-19T04:24:30.433Z,102015.38
2022-10-19T04:25:32.158Z,102011.00
2022-10-19T04:26:38.188Z,102016.53
2022-10-19T04:27:39.891Z,102006.59
2022-10-19T04:28:41.611Z,102008.47
2022-10-19T04:29:43.450Z,102013.84
2022-10-19T04:30:45.185Z,101995.41
2022-10-19T04:31:49.963Z,102012.97
2022-10-19T04:32:51.780Z,102012.97
2022-10-19T04:33:53.545Z,102011.41
2022-10-19T04:34:55.252Z,102013.84
2022-10-19T04:36:08.916Z,102011.00
2022-10-19T04:37:10.611Z,102012.97
2022-10-19T04:38:12.499Z,102005.56
2022-10-19T04:39:14.278Z,102011.41
2022-10-19T04:40:16.126Z,102014.66
2022-10-19T04:41:20.548Z,102012.97
2022-10-19T04:42:22.298Z,102021.75
2022-10-19T04:43:24.096Z,102016.53
2022-10-19T04:44:25.875Z,102020.03
2022-10-19T04:45:27.696Z,102027.13
2022-10-19T04:46:30.132Z,102021.91
2022-10-19T04:47:32.309Z,102019.06
2022-10-19T04:48:36.127Z,102025.41
2022-10-19T04:49:37.887Z,102021.75
2022-10-19T04:50:39.642Z,102021.75
2022-10-19T04:51:41.290Z,102017.34
2022-10-19T04:52:45.304Z,102021.75
2022-10-19T04:53:47.812Z,102022.59
2022-10-19T04:54:49.557Z,102020.03
2022-10-19T04:55:51.247Z,102003.75
2022-10-19T04:56:53.996Z,102021.75
2022-10-19T04:57:55.907Z,102019.06
2022-10-19T04:58:58.956Z,102009.84
2022-10-19T05:00:00.635Z,102027.13
2022-10-19T05:01:13.793Z,102027.84
2022-10-19T05:02:15.593Z,102037.59
2022-10-19T05:03:17.568Z,102025.16
2022-10-19T05:04:19.295Z,102027.84
2022-10-19T05:05:21.057Z,102032.50
2022-10-19T05:06:23.381Z,102028.00
2022-10-19T05:07:25.342Z,102039.56
2022-10-19T05:08:27.027Z,102034.19
2022-10-19T05:09:28.769Z,102038.47
2022-10-19T05:10:30.664Z,102034.19
2022-10-19T05:11:32.519Z,102041.88
2022-10-19T05:12:36.916Z,102036.34
2022-10-19T05:13:39.245Z,102022.34
2022-10-19T05:14:42.859Z,102023.88
2022-10-19T05:15:54.899Z,102036.59
2022-10-19T05:16:56.889Z,102029.78
2022-10-19T05:17:58.683Z,102047.63
2022-10-19T05:19:00.397Z,102045.53
2022-10-19T05:20:02.276Z,102050.63
2022-10-19T05:21:09.980Z,102040.59
2022-10-19T05:22:11.762Z,102041.91
2022-10-19T05:23:13.430Z,102044.31
2022-10-19T05:24:15.095Z,102035.97
2022-10-19T05:25:16.871Z,102035.00
2022-10-19T05:26:20.518Z,102053.38
2022-10-19T05:27:22.350Z,102038.66
2022-10-19T05:28:24.006Z,102043.78
2022-10-19T05:29:25.904Z,102041.69
2022-10-19T05:30:27.652Z,102047.66
2022-10-19T05:31:32.326Z,102048.34
2022-10-19T05:32:35.067Z,102038.03
2022-10-19T05:33:37.410Z,102040.44
2022-10-19T05:34:39.191Z,102036.16
2022-10-19T05:35:40.878Z,102052.34
2022-10-19T05:36:42.650Z,102046.69
2022-10-19T05:37:44.451Z,102013.81
2022-10-19T05:38:48.209Z,102039.03
2022-10-19T05:39:49.870Z,102034.53
2022-10-19T05:40:53.546Z,102052.97
2022-10-19T05:41:55.562Z,102033.38
2022-10-19T05:42:57.296Z,102048.00
2022-10-19T05:44:01.039Z,102045.19
2022-10-19T05:45:02.831Z,102047.59
2022-10-19T05:46:09.295Z,102044.19
2022-10-19T05:47:11.140Z,102040.50
2022-10-19T05:48:12.865Z,102044.22
2022-10-19T05:49:16.725Z,102043.22
2022-10-19T05:50:18.407Z,102048.44
2022-10-19T05:51:21.647Z,102051.03
2022-10-19T05:52:23.427Z,102053.56
2022-10-19T05:53:25.122Z,102056.13
2022-10-19T05:54:28.521Z,102051.56
2022-10-19T05:55:34.813Z,102031.47
2022-10-19T05:56:36.832Z,102049.47
2022-10-19T05:57:39.215Z,102042.22
2022-10-19T05:58:41.084Z,102047.47
2022-10-19T05:59:42.838Z,102047.47
2022-10-19T06:00:50.382Z,102048.19
2022-10-19T06:01:52.188Z,102048.88
2022-10-19T06:02:58.978Z,102049.88
2022-10-19T06:04:02.984Z,102037.69
2022-10-19T06:05:05.131Z,102054.00
2022-10-19T06:06:08.696Z,102045.06
2022-10-19T06:07:10.410Z,102050.31
2022-10-19T06:08:12.197Z,102044.09
2022-10-19T06:09:14.147Z,102049.31
2022-10-19T06:10:16.079Z,102052.00
2022-10-19T06:11:23.900Z,102049.31
2022-10-19T06:12:25.706Z,102054.56
2022-10-19T06:13:27.434Z,102044.78
2022-10-19T06:14:29.256Z,102057.25
2022-10-19T06:15:34.090Z,102044.63
2022-10-19T06:16:36.233Z,102043.63
2022-10-19T06:17:38.009Z,102054.41
2022-10-19T06:18:40.036Z,102054.28
2022-10-19T06:19:41.786Z,102045.34
2022-10-19T06:20:43.522Z,102045.63
2022-10-19T06:21:46.185Z,102043.50
2022-10-19T06:22:47.885Z,102052.28
2022-10-19T06:23:54.300Z,102048.75
2022-10-19T06:24:56.521Z,102047.91
2022-10-19T06:25:59.092Z,102057.53
2022-10-19T06:27:00.834Z,102054.81
2022-10-19T06:28:03.279Z,102060.50
2022-10-19T06:29:05.502Z,102059.22
2022-10-19T06:30:07.908Z,102058.41
2022-10-19T06:31:10.454Z,102061.91
2022-10-19T06:32:12.272Z,102067.19
2022-10-19T06:33:14.041Z,102077.97
2022-10-19T06:34:15.909Z,102064.63
2022-10-19T06:35:17.958Z,102073.41
2022-10-19T06:36:22.827Z,102065.31
2022-10-19T06:37:24.551Z,102055.00
2022-10-19T06:38:26.279Z,102065.19
2022-10-19T06:39:28.029Z,102059.81
2022-10-19T06:40:29.845Z,102064.34
2022-10-19T06:41:31.869Z,102066.06
2022-10-19T06:42:48.952Z,102060.38
2022-10-19T06:43:54.838Z,102058.97
2022-10-19T06:44:56.525Z,102072.88
2022-10-19T06:45:58.307Z,102066.75
2022-10-19T06:47:00.203Z,102034.13
2022-10-19T06:48:04.969Z,102063.06
2022-10-19T06:49:13.519Z,102068.47
2022-10-19T06:50:15.194Z,102056.97
2022-10-19T06:51:16.940Z,102068.31
2022-10-19T06:52:18.638Z,102070.16
2022-10-19T06:53:20.325Z,102067.47
2022-10-19T06:54:22.026Z,102065.78
2022-10-19T06:55:23.781Z,102059.53
2022-10-19T06:56:26.740Z,102071.16
2022-10-19T06:57:28.819Z,102072.00
2022-10-19T06:58:31.153Z,102059.94
2022-10-19T06:59:32.834Z,102060.38
2022-10-19T07:00:34.646Z,102051.84
2022-10-19T07:01:36.358Z,102066.47
2022-10-19T07:02:38.063Z,102056.97
2022-10-19T07:03:40.942Z,102061.22
2022-10-19T07:04:42.720Z,102067.47
2022-10-19T07:05:53.064Z,102063.78
2022-10-19T07:06:54.802Z,102060.94
2022-10-19T07:07:57.558Z,102061.09
2022-10-19T07:08:59.385Z,102060.09
2022-10-19T07:10:01.168Z,102062.78
2022-10-19T07:11:06.918Z,102066.59
2022-10-19T07:12:10.796Z,102067.19
2022-10-19T07:13:12.533Z,102068.88
2022-10-19T07:14:14.670Z,102060.09
2022-10-19T07:15:16.447Z,102059.22
2022-10-19T07:16:21.200Z,102051.59
2022-10-19T07:17:23.356Z,102059.09
2022-10-19T07:18:25.811Z,102060.09
2022-10-19T07:19:27.537Z,102058.22
2022-10-19T07:20:29.286Z,102060.94
2022-10-19T07:21:31.143Z,102059.09
2022-10-19T07:22:32.830Z,102053.41
2022-10-19T07:23:36.416Z,102060.09
2022-10-19T07:24:38.696Z,102054.72
2022-10-19T07:25:40.398Z,102064.50
2022-10-19T07:26:42.079Z,102044.34
2022-10-19T07:27:43.987Z,102053.72
2022-10-19T07:28:47.758Z,102058.53
2022-10-19T07:29:49.519Z,102061.78
2022-10-19T07:30:51.643Z,102060.09
2022-10-19T07:31:53.411Z,102063.50
2022-10-19T07:32:55.083Z,102062.63
2022-10-19T07:33:59.295Z,102040.53
2022-10-19T07:35:00.955Z,102066.19
2022-10-19T07:36:05.171Z,102062.63
2022-10-19T07:37:06.983Z,102070.59
2022-10-19T07:38:08.906Z,102061.78
2022-10-19T07:39:12.571Z,102065.31
2022-10-19T07:40:14.559Z,102056.25
2022-10-19T07:41:18.707Z,102055.41
2022-10-19T07:42:23.384Z,102047.34
2022-10-19T07:43:25.063Z,102056.25
2022-10-19T07:44:27.203Z,102050.84
2022-10-19T07:45:30.076Z,102057.81
2022-10-19T07:46:37.245Z,102058.81
2022-10-19T07:47:39.027Z,102046.34
2022-10-19T07:48:42.690Z,102057.81
2022-10-19T07:49:44.506Z,102057.81
2022-10-19T07:50:48.134Z,102056.94
2022-10-19T07:51:53.989Z,102052.44
2022-10-19T07:52:55.946Z,102050.16
2022-10-19T07:53:59.015Z,102058.81
2022-10-19T07:55:00.924Z,102060.50
2022-10-19T07:56:05.463Z,102042.22
2022-10-19T07:57:07.168Z,102042.22
2022-10-19T07:58:08.935Z,102053.25
2022-10-19T07:59:10.745Z,102052.44
2022-10-19T08:00:12.919Z,102057.81
2022-10-19T08:01:17.326Z,102058.81
2022-10-19T08:02:20.287Z,102054.72
2022-10-19T08:05:02.125Z,102050.97
2022-10-19T08:06:09.070Z,102051.69
2022-10-19T08:07:10.953Z,102058.06
2022-10-19T08:08:12.731Z,102060.06
2022-10-19T08:09:33.342Z,102052.13
2022-10-19T08:10:36.821Z,102043.75
2022-10-19T08:11:38.602Z,102051.16
2022-10-19T08:12:40.427Z,102055.81
2022-10-19T08:13:42.226Z,102056.81
2022-10-19T08:14:43.964Z,102062.22
2022-10-19T08:15:45.632Z,102060.34
2022-10-19T08:16:47.424Z,102056.94
2022-10-19T08:17:49.161Z,102062.22
2022-10-19T08:18:52.103Z,102060.50
2022-10-19T08:19:53.851Z,102061.22
2022-10-19T08:20:56.291Z,102064.03
2022-10-19T08:21:59.574Z,102058.66
2022-10-19T08:23:02.166Z,102061.22
2022-10-19T08:24:04.341Z,102053.56
2022-10-19T08:25:06.333Z,102064.03
2022-10-19T08:26:08.091Z,102060.34
2022-10-19T08:27:09.767Z,102046.63
2022-10-19T08:28:11.478Z,102039.38
2022-10-19T08:29:18.241Z,102064.91
2022-10-19T08:30:20.071Z,102060.22
2022-10-19T08:31:23.019Z,102061.22
2022-10-19T08:32:24.739Z,102028.47
2022-10-19T08:33:26.765Z,102060.34
2022-10-19T08:34:28.550Z,102050.44
2022-10-19T08:35:31.374Z,102056.66
2022-10-19T08:36:35.647Z,102056.66
2022-10-19T08:37:45.286Z,102055.81
2022-10-19T08:38:48.964Z,102060.94
2022-10-19T08:39:50.668Z,102062.63
2022-10-19T08:40:52.516Z,102054.84
2022-10-19T08:42:19.595Z,102050.16
2022-10-19T08:43:38.459Z,102041.19
2022-10-19T08:44:42.981Z,102059.34
2022-10-19T08:45:53.597Z,102055.25
2022-10-19T08:47:12.431Z,102057.81
2022-10-19T08:48:36.788Z,102056.41
2022-10-19T08:49:38.672Z,102055.69
2022-10-19T08:50:44.015Z,102059.66
2022-10-19T08:51:56.277Z,102055.25
2022-10-19T08:53:03.492Z,102052.44
2022-10-19T08:54:12.543Z,102051.56
2022-10-19T08:55:20.452Z,102051.56
2022-10-19T08:56:50.889Z,102062.22
2022-10-19T08:58:12.596Z,102059.25
2022-10-19T08:59:32.235Z,102047.31
2022-10-19T09:00:43.533Z,102051.88
2022-10-19T09:01:56.981Z,102038.09
2022-10-19T09:03:27.143Z,102053.56
2022-10-19T09:04:46.082Z,102046.19
2022-10-19T09:05:57.592Z,102048.31
2022-10-19T09:07:32.535Z,102045.63
2022-10-19T09:08:38.615Z,102044.50
2022-10-19T09:09:56.478Z,102050.19
2022-10-19T09:10:58.882Z,102044.78
2022-10-19T09:12:06.913Z,102044.19
2022-10-19T09:13:08.618Z,102053.13
2022-10-19T09:14:20.535Z,102050.56
2022-10-19T09:15:42.292Z,102044.19
2022-10-19T09:16:44.267Z,102048.31
2022-10-19T09:17:46.591Z,102037.78
2022-10-19T09:18:49.455Z,102047.88
2022-10-19T09:19:52.159Z,102048.88
2022-10-19T09:21:06.010Z,102043.47
2022-10-19T09:22:19.365Z,102038.78
2022-10-19T09:23:29.408Z,102039.66
2022-10-19T09:24:43.901Z,102048.47
2022-10-19T09:25:48.365Z,102042.22
2022-10-19T09:26:54.152Z,102047.75
2022-10-19T09:28:21.438Z,102045.63
2022-10-19T09:29:45.249Z,102048.59
2022-10-19T09:30:49.121Z,102043.50
2022-10-19T09:31:55.239Z,102040.22
2022-10-19T09:33:01.342Z,102049.31
2022-10-19T09:34:19.841Z,102041.09
2022-10-19T09:35:30.541Z,102042.78
2022-10-19T09:36:50.670Z,102041.94
2022-10-19T09:37:53.216Z,102033.13
2022-10-19T09:38:54.908Z,102041.94
2022-10-19T09:39:56.791Z,102044.78
2022-10-19T09:41:07.498Z,102041.34
2022-10-19T09:42:09.145Z,102045.63
2022-10-19T09:43:21.768Z,102037.69
2022-10-19T09:44:24.617Z,102039.22
2022-10-19T09:45:39.361Z,102032.56
2022-10-19T09:46:57.915Z,102037.25
2022-10-19T09:48:08.732Z,102045.31
2022-10-19T09:49:13.962Z,102038.81
2022-10-19T09:50:20.539Z,102040.09
2022-10-19T09:51:23.000Z,102032.00
2022-10-19T09:52:46.082Z,102037.94
2022-10-19T09:53:52.063Z,102031.72
2022-10-19T09:55:16.703Z,102032.97
2022-10-19T09:56:24.694Z,102030.56
2022-10-19T09:57:26.537Z,102020.38
2022-10-19T09:58:32.902Z,102032.84
2022-10-19T09:59:37.215Z,102004.19
2022-10-19T10:00:44.421Z,102017.22
2022-10-19T10:01:46.281Z,102027.31
2022-10-19T10:02:53.385Z,102005.63
2022-10-19T10:04:08.457Z,102027.16
2022-10-19T10:05:14.936Z,102017.25
2022-10-19T10:06:17.809Z,102036.94
2022-10-19T10:07:19.526Z,102026.34
2022-10-19T10:08:26.049Z,102022.50
2022-10-19T10:09:29.951Z,102022.78
2022-10-19T10:10:38.399Z,102036.25
2022-10-19T10:11:41.217Z,102023.78
2022-10-19T10:12:43.656Z,102027.16
2022-10-19T10:13:50.396Z,102029.16
2022-10-19T10:14:55.448Z,102017.38
2022-10-19T10:16:01.533Z,102014.97
2022-10-19T10:17:13.388Z,102014.84
2022-10-19T10:18:17.244Z,102025.16
2022-10-19T10:19:19.267Z,102030.56
2022-10-19T10:20:30.499Z,102018.25
2022-10-19T10:21:57.962Z,102020.78
2022-10-19T10:23:06.110Z,102008.16
2022-10-19T10:24:10.802Z,102019.50
2022-10-19T10:25:18.166Z,102020.47
2022-10-19T10:26:20.181Z,102019.94
2022-10-19T10:27:37.644Z,102002.19
2022-10-19T10:28:48.087Z,102014.38
2022-10-19T10:31:08.480Z,102025.75
2022-10-19T10:32:18.878Z,102014.09
2022-10-19T10:33:40.424Z,102009.88
2022-10-19T10:34:57.289Z,102027.28
2022-10-19T10:36:07.865Z,102013.97
2022-10-19T10:37:23.245Z,102014.50
2022-10-19T10:38:30.733Z,102010.09
2022-10-19T10:39:32.959Z,102017.50
2022-10-19T10:40:35.297Z,102013.25
2022-10-19T10:41:40.773Z,102015.25
2022-10-19T10:42:45.236Z,102018.78
2022-10-19T10:44:36.916Z,102020.91
2022-10-19T10:45:42.598Z,102012.38
2022-10-19T10:46:57.194Z,102017.06
2022-10-19T10:49:22.643Z,102011.81
2022-10-19T10:50:31.228Z,102008.41
2022-10-19T10:51:38.835Z,102008.56
2022-10-19T10:52:40.866Z,102006.72
2022-10-19T10:53:43.559Z,102008.69
2022-10-19T10:55:16.978Z,102008.56
2022-10-19T10:56:25.354Z,102010.97
2022-10-19T10:57:34.448Z,102008.41
2022-10-19T10:58:47.941Z,102003.03
2022-10-19T11:00:02.579Z,102010.09
2022-10-19T11:01:13.558Z,102003.03
2022-10-19T11:02:18.172Z,102007.56
2022-10-19T11:03:27.062Z,101995.22
2022-10-19T11:04:35.418Z,102005.88
2022-10-19T11:05:42.671Z,102002.31
2022-10-19T11:06:52.958Z,102005.00
2022-10-19T11:08:12.737Z,101998.31
2022-10-19T11:09:31.505Z,101988.53
2022-10-19T11:11:01.987Z,102008.38
2022-10-19T11:12:09.258Z,101998.06
2022-10-19T11:13:34.127Z,102000.59
2022-10-19T11:14:41.519Z,102006.16
2022-10-19T11:15:57.511Z,102002.75
2022-10-19T11:17:23.102Z,102001.03
2022-10-19T11:18:34.635Z,101987.00
2022-10-19T11:19:41.142Z,102006.41
2022-10-19T11:20:53.326Z,102007.41
2022-10-19T11:22:08.104Z,101992.53
2022-10-19T11:23:27.103Z,101997.38
2022-10-19T11:24:54.212Z,101998.59
2022-10-19T11:26:20.734Z,101995.91
2022-10-19T11:27:42.224Z,101995.22
2022-10-19T11:29:18.958Z,102008.97
2022-10-19T11:30:23.056Z,101996.78
2022-10-19T11:31:45.966Z,102009.56
2022-10-19T11:33:06.280Z,101992.22
2022-10-19T11:34:25.151Z,101981.34
2022-10-19T11:35:52.958Z,102000.31
2022-10-19T11:37:03.339Z,101993.38
2022-10-19T11:38:32.785Z,101995.91
2022-10-19T11:40:05.367Z,101991.38
2022-10-19T11:41:17.855Z,101996.78
2022-10-19T11:42:40.980Z,101996.19
2022-10-19T11:44:06.366Z,101976.66
2022-10-19T11:45:10.834Z,101988.13
2022-10-19T11:46:26.905Z,101984.59
2022-10-19T11:47:51.305Z,101992.81
2022-10-19T11:49:18.606Z,101985.97
2022-10-19T11:50:29.577Z,101989.69
2022-10-19T11:51:49.946Z,101996.78
2022-10-19T11:53:25.035Z,101970.81
2022-10-19T11:54:56.771Z,101980.88
2022-10-19T11:56:09.115Z,101978.59
2022-10-19T11:57:18.828Z,101979.03
2022-10-19T11:58:39.307Z,101977.03
2022-10-19T11:59:50.219Z,101970.94
2022-10-19T12:00:59.662Z,101975.50
2022-10-19T12:02:45.774Z,101982.00
2022-10-19T12:03:55.123Z,101977.72
2022-10-19T12:05:11.364Z,101976.03
2022-10-19T12:06:22.061Z,101974.63
2022-10-19T12:07:55.471Z,101970.09
2022-10-19T12:09:15.752Z,101965.94
2022-10-19T12:10:33.986Z,101968.09
2022-10-19T12:11:59.228Z,101960.16
2022-10-19T12:13:09.022Z,101963.72
2022-10-19T12:14:18.461Z,101955.75
2022-10-19T12:15:35.672Z,101963.03
2022-10-19T12:16:42.318Z,101963.03
2022-10-19T12:17:50.191Z,101959.63
2022-10-19T12:19:00.542Z,101957.88
2022-10-19T12:20:08.303Z,101965.84
2022-10-19T12:21:32.992Z,101959.75
2022-10-19T12:22:37.747Z,101961.03
2022-10-19T12:23:43.747Z,101957.63
2022-10-19T12:24:45.539Z,101961.31
2022-10-19T12:25:48.890Z,101945.00
2022-10-19T12:26:52.140Z,101957.06
2022-10-19T12:27:54.291Z,101949.97
2022-10-19T12:29:00.635Z,101951.81
2022-10-19T12:30:07.866Z,101947.09
2022-10-19T12:31:11.170Z,101956.91
2022-10-19T12:32:19.762Z,101946.28
2022-10-19T12:33:36.509Z,101943.84
2022-10-19T12:35:04.728Z,101925.09
2022-10-19T12:36:35.746Z,101934.84
2022-10-19T12:38:11.299Z,101936.25
2022-10-19T12:39:46.858Z,101941.78
2022-10-19T12:40:56.031Z,101942.78
2022-10-19T12:42:39.062Z,101934.84
2022-10-19T12:44:12.773Z,101931.16
2022-10-19T12:45:53.142Z,101929.44
2022-10-19T12:47:01.801Z,101926.06
2022-10-19T12:48:11.077Z,101927.91
2022-10-19T12:49:30.696Z,101933.16